createdAt,value
2018-12-31T00:02:28.305Z,15.75
2018-12-31T00:04:59.993Z,16.08
2018-12-31T00:07:29.498Z,16.29
2018-12-31T00:09:59.551Z,16.63
2018-12-31T00:12:28.941Z,17.49
2018-12-31T00:14:59.734Z,16.51
2018-12-31T00:17:30.189Z,17.25
2018-12-31T00:20:00.197Z,17.31
2018-12-31T00:22:29.105Z,16.93
2018-12-31T00:24:58.494Z,16.17
2018-12-31T00:27:27.883Z,15.66
2018-12-31T00:29:57.793Z,15.87
2018-12-31T00:32:27.927Z,15.87
2018-12-31T00:34:57.020Z,15.27
2018-12-31T00:37:26.306Z,16.33
2018-12-31T00:39:55.813Z,14.60
2018-12-31T00:42:25.102Z,14.92
2018-12-31T00:44:54.401Z,14.64
2018-12-31T00:47:23.430Z,14.98
2018-12-31T00:49:52.313Z,15.73
2018-12-31T00:52:21.597Z,15.96
2018-12-31T00:54:51.464Z,16.29
2018-12-31T00:57:20.802Z,15.98
2018-12-31T00:59:50.362Z,15.65
2018-12-31T01:02:19.583Z,15.69
2018-12-31T01:04:49.075Z,15.41
2018-12-31T01:07:18.610Z,15.30
2018-12-31T01:09:48.004Z,16.26
2018-12-31T01:12:17.355Z,15.59
2018-12-31T01:14:46.241Z,16.80
2018-12-31T01:17:15.265Z,15.58
2018-12-31T01:19:44.820Z,15.80
2018-12-31T01:22:14.178Z,15.91
2018-12-31T01:24:43.139Z,14.69
2018-12-31T01:27:12.837Z,14.56
2018-12-31T01:29:42.437Z,15.90
2018-12-31T01:32:11.617Z,15.17
2018-12-31T01:34:41.245Z,16.08
2018-12-31T01:37:10.142Z,14.76
2018-12-31T01:39:39.135Z,15.50
2018-12-31T01:42:08.120Z,15.68
2018-12-31T01:44:37.313Z,15.06
2018-12-31T01:47:06.572Z,15.24
2018-12-31T01:49:35.720Z,15.53
2018-12-31T01:52:05.024Z,15.48
2018-12-31T01:54:34.335Z,15.78
2018-12-31T01:57:03.614Z,13.92
2018-12-31T01:59:32.656Z,15.36
2018-12-31T02:02:01.696Z,15.02
2018-12-31T02:04:30.931Z,14.56
2018-12-31T02:07:00.896Z,15.35
2018-12-31T02:09:30.225Z,15.17
2018-12-31T02:12:00.122Z,14.81
2018-12-31T02:14:29.079Z,14.48
2018-12-31T02:16:58.173Z,15.28
2018-12-31T02:19:27.212Z,15.94
2018-12-31T02:22:35.793Z,16.01
2018-12-31T02:25:05.483Z,14.49
2018-12-31T02:27:34.575Z,14.29
2018-12-31T02:30:03.847Z,14.21
2018-12-31T02:32:33.200Z,15.32
2018-12-31T02:35:02.632Z,15.49
2018-12-31T02:37:31.958Z,15.92
2018-12-31T02:40:01.450Z,16.12
2018-12-31T02:42:30.528Z,15.89
2018-12-31T02:44:59.880Z,15.58
2018-12-31T02:47:29.166Z,16.70
2018-12-31T02:49:58.661Z,16.36
2018-12-31T02:52:28.263Z,16.66
2018-12-31T02:54:57.603Z,17.04
2018-12-31T02:57:27.617Z,17.16
2018-12-31T02:59:59.063Z,17.38
2018-12-31T03:02:28.340Z,17.44
2018-12-31T03:04:57.303Z,17.79
2018-12-31T03:07:26.531Z,17.73
2018-12-31T03:09:56.373Z,17.35
2018-12-31T03:12:25.652Z,17.73
2018-12-31T03:14:55.356Z,17.38
2018-12-31T03:17:24.644Z,17.39
2018-12-31T03:19:54.267Z,17.93
2018-12-31T03:22:23.761Z,16.53
2018-12-31T03:24:53.741Z,17.62
2018-12-31T03:27:22.698Z,17.75
2018-12-31T03:29:52.278Z,17.95
2018-12-31T03:32:21.255Z,17.49
2018-12-31T03:34:50.899Z,17.43
2018-12-31T03:37:20.178Z,16.95
2018-12-31T03:39:49.785Z,17.25
2018-12-31T03:42:18.906Z,16.86
2018-12-31T03:44:50.188Z,16.89
2018-12-31T03:47:19.857Z,17.62
2018-12-31T03:49:49.118Z,17.58
2018-12-31T03:52:18.013Z,18.12
2018-12-31T03:54:47.329Z,17.92
2018-12-31T03:57:17.171Z,17.41
2018-12-31T03:59:46.139Z,17.68
2018-12-31T04:02:15.444Z,17.80
2018-12-31T04:04:44.574Z,17.84
2018-12-31T04:07:14.263Z,17.91
2018-12-31T04:09:43.352Z,18.10
2018-12-31T04:12:12.860Z,17.52
2018-12-31T04:14:42.143Z,16.88
2018-12-31T04:17:11.063Z,16.74
2018-12-31T04:19:40.339Z,16.13
2018-12-31T04:22:09.392Z,16.52
2018-12-31T04:24:38.744Z,14.75
2018-12-31T04:27:08.397Z,15.20
2018-12-31T04:29:37.736Z,15.89
2018-12-31T04:32:07.341Z,16.15
2018-12-31T04:34:36.337Z,14.95
2018-12-31T04:37:05.646Z,15.68
2018-12-31T04:39:34.669Z,16.57
2018-12-31T04:42:03.987Z,16.33
2018-12-31T04:44:33.302Z,15.63
2018-12-31T04:47:02.366Z,15.16
2018-12-31T04:49:32.057Z,15.99
2018-12-31T04:52:01.397Z,16.23
2018-12-31T04:54:31.046Z,16.10
2018-12-31T04:57:00.033Z,15.72
2018-12-31T04:59:29.085Z,15.44
2018-12-31T05:01:58.771Z,15.52
2018-12-31T05:04:27.885Z,15.31
2018-12-31T05:06:56.876Z,15.69
2018-12-31T05:09:26.439Z,16.11
2018-12-31T05:11:55.866Z,15.31
2018-12-31T05:14:24.874Z,15.93
2018-12-31T05:16:54.131Z,15.49
2018-12-31T05:19:25.226Z,15.72
2018-12-31T05:21:54.904Z,15.36
2018-12-31T05:24:24.184Z,16.02
2018-12-31T05:26:53.916Z,15.45
2018-12-31T05:29:23.310Z,15.75
2018-12-31T05:31:53.059Z,16.49
2018-12-31T05:34:22.587Z,16.86
2018-12-31T05:36:52.136Z,16.95
2018-12-31T05:39:21.105Z,17.16
2018-12-31T05:41:50.532Z,17.66
2018-12-31T05:44:19.958Z,17.82
2018-12-31T05:46:48.977Z,18.03
2018-12-31T05:49:18.067Z,18.10
2018-12-31T05:51:47.334Z,18.25
2018-12-31T05:54:16.618Z,18.27
2018-12-31T05:56:45.650Z,18.39
2018-12-31T05:59:14.929Z,18.34
2018-12-31T06:01:44.352Z,18.50
2018-12-31T06:04:13.741Z,18.66
2018-12-31T06:06:43.116Z,18.63
2018-12-31T06:09:12.933Z,18.62
2018-12-31T06:11:42.182Z,18.57
2018-12-31T06:14:11.381Z,18.49
2018-12-31T06:16:41.546Z,18.52
2018-12-31T06:19:10.963Z,18.74
2018-12-31T06:21:40.255Z,18.81
2018-12-31T06:24:10.602Z,18.75
2018-12-31T06:26:39.501Z,18.82
2018-12-31T06:29:09.522Z,18.98
2018-12-31T06:31:38.483Z,18.74
2018-12-31T06:34:07.880Z,18.71
2018-12-31T06:36:37.182Z,18.56
2018-12-31T06:39:08.637Z,18.57
2018-12-31T06:41:38.039Z,18.60
2018-12-31T06:44:07.872Z,18.48
2018-12-31T06:46:37.460Z,18.51
2018-12-31T06:49:07.265Z,18.57
2018-12-31T06:51:36.264Z,18.59
2018-12-31T06:54:05.553Z,18.77
2018-12-31T06:56:35.061Z,18.81
2018-12-31T06:59:04.261Z,18.99
2018-12-31T07:01:33.120Z,18.76
2018-12-31T07:04:02.460Z,18.44
2018-12-31T07:06:31.779Z,18.45
2018-12-31T07:09:01.893Z,17.75
2018-12-31T07:11:31.170Z,18.01
2018-12-31T07:14:00.480Z,17.98
2018-12-31T07:16:30.071Z,18.61
2018-12-31T07:18:59.042Z,18.56
2018-12-31T07:21:28.502Z,17.77
2018-12-31T07:23:57.450Z,17.81
2018-12-31T07:26:26.663Z,17.86
2018-12-31T07:28:56.990Z,16.06
2018-12-31T07:31:26.227Z,17.27
2018-12-31T07:33:55.910Z,16.81
2018-12-31T07:36:24.902Z,16.08
2018-12-31T07:38:54.403Z,16.60
2018-12-31T07:41:23.346Z,17.00
2018-12-31T07:43:52.666Z,17.65
2018-12-31T07:46:22.313Z,17.98
2018-12-31T07:48:51.962Z,16.52
2018-12-31T07:51:21.314Z,15.27
2018-12-31T07:53:50.539Z,14.95
2018-12-31T07:56:20.628Z,16.74
2018-12-31T07:58:49.847Z,15.98
2018-12-31T08:01:19.117Z,17.07
2018-12-31T08:03:48.176Z,17.29
2018-12-31T08:06:17.158Z,15.76
2018-12-31T08:08:46.312Z,15.40
2018-12-31T08:11:15.822Z,16.11
2018-12-31T08:13:45.437Z,16.02
2018-12-31T08:16:14.675Z,15.98
2018-12-31T08:18:43.743Z,17.40
2018-12-31T08:21:13.225Z,15.46
2018-12-31T08:23:42.527Z,16.77
2018-12-31T08:26:11.941Z,18.06
2018-12-31T08:28:42.069Z,17.94
2018-12-31T08:31:11.094Z,17.40
2018-12-31T08:33:40.142Z,16.53
2018-12-31T08:36:09.445Z,15.00
2018-12-31T08:38:39.781Z,15.38
2018-12-31T08:41:08.880Z,15.55
2018-12-31T08:43:38.315Z,16.06
2018-12-31T08:46:07.633Z,17.33
2018-12-31T08:48:36.594Z,17.72
2018-12-31T08:51:05.959Z,17.12
2018-12-31T08:53:35.459Z,17.28
2018-12-31T08:56:05.046Z,18.19
2018-12-31T08:58:34.104Z,17.49
2018-12-31T09:01:04.751Z,17.37
2018-12-31T09:03:34.186Z,15.04
2018-12-31T09:06:03.519Z,17.16
2018-12-31T09:08:34.772Z,16.53
2018-12-31T09:11:04.139Z,16.11
2018-12-31T09:13:33.139Z,16.83
2018-12-31T09:16:02.443Z,16.77
2018-12-31T09:18:31.739Z,17.71
2018-12-31T09:21:00.938Z,17.74
2018-12-31T09:23:30.083Z,18.38
2018-12-31T09:25:59.214Z,18.58
2018-12-31T09:28:28.984Z,17.30
2018-12-31T09:30:58.182Z,18.82
2018-12-31T09:33:27.750Z,17.40
2018-12-31T09:35:57.043Z,17.76
2018-12-31T09:38:25.969Z,18.76
2018-12-31T09:40:55.181Z,17.70
2018-12-31T09:43:24.880Z,16.76
2018-12-31T09:45:53.946Z,16.46
2018-12-31T09:48:23.244Z,17.51
2018-12-31T09:50:52.255Z,16.22
2018-12-31T09:53:21.215Z,16.59
2018-12-31T09:55:50.440Z,16.82
2018-12-31T09:58:19.722Z,17.42
2018-12-31T10:00:49.031Z,18.29
2018-12-31T10:03:18.285Z,17.88
2018-12-31T10:05:47.578Z,18.09
2018-12-31T10:08:16.485Z,17.39
2018-12-31T10:10:47.577Z,15.57
2018-12-31T10:13:16.664Z,14.91
2018-12-31T10:15:45.965Z,17.09
2018-12-31T10:18:15.140Z,16.95
2018-12-31T10:20:44.632Z,17.08
2018-12-31T10:23:14.167Z,18.15
2018-12-31T10:25:43.156Z,15.75
2018-12-31T10:28:12.768Z,17.66
2018-12-31T10:30:42.398Z,18.31
2018-12-31T10:33:11.338Z,17.49
2018-12-31T10:35:40.199Z,16.74
2018-12-31T10:38:09.180Z,17.34
2018-12-31T10:40:38.222Z,17.29
2018-12-31T10:43:07.774Z,15.50
2018-12-31T10:45:37.064Z,17.17
2018-12-31T10:48:06.899Z,18.31
2018-12-31T10:50:36.163Z,18.38
2018-12-31T10:53:05.133Z,17.99
2018-12-31T10:55:34.524Z,16.51
2018-12-31T10:58:04.271Z,18.08
2018-12-31T11:00:33.898Z,18.24
2018-12-31T11:03:02.885Z,18.13
2018-12-31T11:05:31.902Z,17.48
2018-12-31T11:08:01.214Z,19.23
2018-12-31T11:10:30.867Z,18.46
2018-12-31T11:13:00.085Z,17.36
2018-12-31T11:15:29.691Z,18.72
2018-12-31T11:17:58.655Z,18.29
2018-12-31T11:20:28.733Z,16.74
2018-12-31T11:22:58.090Z,16.92
2018-12-31T11:25:27.148Z,18.94
2018-12-31T11:27:56.137Z,17.18
2018-12-31T11:30:25.118Z,16.22
2018-12-31T11:32:54.330Z,17.49
2018-12-31T11:35:23.304Z,17.03
2018-12-31T11:37:52.575Z,16.68
2018-12-31T11:40:21.536Z,18.52
2018-12-31T11:42:50.750Z,17.39
2018-12-31T11:45:20.055Z,18.85
2018-12-31T11:47:49.690Z,18.91
2018-12-31T11:50:18.898Z,19.64
2018-12-31T11:52:48.171Z,18.46
2018-12-31T11:55:17.443Z,17.77
2018-12-31T11:57:47.065Z,17.35
2018-12-31T12:00:16.124Z,18.60
2018-12-31T12:02:46.290Z,19.70
2018-12-31T12:05:15.753Z,19.46
2018-12-31T12:07:45.341Z,19.96
2018-12-31T12:10:14.336Z,18.10
2018-12-31T12:12:43.413Z,18.84
2018-12-31T12:15:12.767Z,19.14
2018-12-31T12:17:41.986Z,17.98
2018-12-31T12:20:11.278Z,18.75
2018-12-31T12:22:40.226Z,19.70
2018-12-31T12:25:09.224Z,20.01
2018-12-31T12:27:38.632Z,19.15
2018-12-31T12:30:08.891Z,19.26
2018-12-31T12:32:38.225Z,19.48
2018-12-31T12:35:07.927Z,18.90
2018-12-31T12:37:37.205Z,17.83
2018-12-31T12:40:07.308Z,17.71
2018-12-31T12:42:36.719Z,16.95
2018-12-31T12:45:06.880Z,17.65
2018-12-31T12:47:35.997Z,17.58
2018-12-31T12:50:06.996Z,16.86
2018-12-31T12:52:36.384Z,18.17
2018-12-31T12:55:05.464Z,19.51
2018-12-31T12:57:35.089Z,19.45
2018-12-31T13:00:04.446Z,19.21
2018-12-31T13:02:33.904Z,16.34
2018-12-31T13:05:03.797Z,18.92
2018-12-31T13:07:33.328Z,19.28
2018-12-31T13:10:02.723Z,19.65
2018-12-31T13:12:31.861Z,18.15
2018-12-31T13:15:00.927Z,18.42
2018-12-31T13:17:30.122Z,18.78
2018-12-31T13:19:59.890Z,18.23
2018-12-31T13:22:29.121Z,19.25
2018-12-31T13:24:58.643Z,19.88
2018-12-31T13:27:27.591Z,19.18
2018-12-31T13:29:57.121Z,19.45
2018-12-31T13:32:26.876Z,19.43
2018-12-31T13:34:55.857Z,20.28
2018-12-31T13:37:24.906Z,19.80
2018-12-31T13:39:54.339Z,20.15
2018-12-31T13:42:23.632Z,20.31
2018-12-31T13:44:52.884Z,20.55
2018-12-31T13:47:22.235Z,20.69
2018-12-31T13:49:51.216Z,20.54
2018-12-31T13:52:20.918Z,20.73
2018-12-31T13:54:49.810Z,20.06
2018-12-31T13:57:19.348Z,19.13
2018-12-31T13:59:48.685Z,19.29
2018-12-31T14:02:18.179Z,18.21
2018-12-31T14:04:47.148Z,17.52
2018-12-31T14:07:16.314Z,17.63
2018-12-31T14:09:45.731Z,17.31
2018-12-31T14:12:15.226Z,16.95
2018-12-31T14:14:44.441Z,18.18
2018-12-31T14:17:13.693Z,17.78
2018-12-31T14:19:42.687Z,18.40
2018-12-31T14:22:11.691Z,18.85
2018-12-31T14:24:40.631Z,18.06
2018-12-31T14:27:09.817Z,18.75
2018-12-31T14:29:39.117Z,18.94
2018-12-31T14:32:08.107Z,18.67
2018-12-31T14:34:37.402Z,19.70
2018-12-31T14:37:06.376Z,20.21
2018-12-31T14:39:35.784Z,20.34
2018-12-31T14:42:05.038Z,20.09
2018-12-31T14:44:34.286Z,20.28
2018-12-31T14:47:03.284Z,19.81
2018-12-31T14:49:32.353Z,19.55
2018-12-31T14:52:01.316Z,19.76
2018-12-31T14:54:30.399Z,19.63
2018-12-31T14:56:59.662Z,19.60
2018-12-31T14:59:28.683Z,19.33
2018-12-31T15:01:57.622Z,19.79
2018-12-31T15:04:26.635Z,18.93
2018-12-31T15:06:55.595Z,18.92
2018-12-31T15:09:24.843Z,20.03
2018-12-31T15:11:54.456Z,19.86
2018-12-31T15:14:23.753Z,20.24
2018-12-31T15:16:52.685Z,19.77
2018-12-31T15:19:21.627Z,20.00
2018-12-31T15:21:51.361Z,19.03
2018-12-31T15:24:21.110Z,18.30
2018-12-31T15:26:50.694Z,16.61
2018-12-31T15:29:19.677Z,18.80
2018-12-31T15:31:49.001Z,18.36
2018-12-31T15:34:18.273Z,19.69
2018-12-31T15:36:47.231Z,19.36
2018-12-31T15:39:16.533Z,19.94
2018-12-31T15:41:45.600Z,20.03
2018-12-31T15:44:14.980Z,18.73
2018-12-31T15:46:44.282Z,18.43
2018-12-31T15:49:13.864Z,18.33
2018-12-31T15:51:43.535Z,19.47
2018-12-31T15:54:13.251Z,18.94
2018-12-31T15:56:42.239Z,19.06
2018-12-31T15:59:11.617Z,19.77
2018-12-31T16:01:41.284Z,19.69
2018-12-31T16:04:10.369Z,17.68
2018-12-31T16:06:39.668Z,17.78
2018-12-31T16:09:08.856Z,18.33
2018-12-31T16:11:38.041Z,18.26
2018-12-31T16:14:07.473Z,18.57
2018-12-31T16:16:36.784Z,18.80
2018-12-31T16:19:06.074Z,19.43
2018-12-31T16:21:35.080Z,19.63
2018-12-31T16:24:05.259Z,19.80
2018-12-31T16:26:34.496Z,18.58
2018-12-31T16:29:03.504Z,18.23
2018-12-31T16:31:32.508Z,19.18
2018-12-31T16:34:01.803Z,19.10
2018-12-31T16:36:31.067Z,18.24
2018-12-31T16:39:00.053Z,19.37
2018-12-31T16:41:29.865Z,19.57
2018-12-31T16:43:58.926Z,19.74
2018-12-31T16:46:28.406Z,20.02
2018-12-31T16:48:57.806Z,20.00
2018-12-31T16:51:27.113Z,19.75
2018-12-31T16:53:56.134Z,20.02
2018-12-31T16:56:25.181Z,19.84
2018-12-31T16:58:54.251Z,19.79
2018-12-31T17:01:23.241Z,18.66
2018-12-31T17:03:52.895Z,18.09
2018-12-31T17:06:22.380Z,17.88
2018-12-31T17:08:51.689Z,18.51
2018-12-31T17:11:21.140Z,18.94
2018-12-31T17:13:50.546Z,18.29
2018-12-31T17:16:19.530Z,19.26
2018-12-31T17:18:48.522Z,18.81
2018-12-31T17:21:17.427Z,19.96
2018-12-31T17:23:47.092Z,19.95
2018-12-31T17:26:16.268Z,19.76
2018-12-31T17:28:45.486Z,19.14
2018-12-31T17:31:15.081Z,18.73
2018-12-31T17:33:44.910Z,17.28
2018-12-31T17:36:14.037Z,18.00
2018-12-31T17:38:43.593Z,19.57
2018-12-31T17:41:12.601Z,19.52
2018-12-31T17:43:41.964Z,20.04
2018-12-31T17:46:10.952Z,18.76
2018-12-31T17:48:39.991Z,18.70
2018-12-31T17:51:09.472Z,18.94
2018-12-31T17:53:38.920Z,19.27
2018-12-31T17:56:08.014Z,18.05
2018-12-31T17:58:37.372Z,18.18
2018-12-31T18:01:06.674Z,19.02
2018-12-31T18:03:36.901Z,18.85
2018-12-31T18:06:06.771Z,19.80
2018-12-31T18:08:35.769Z,19.15
2018-12-31T18:11:04.754Z,19.48
2018-12-31T18:13:34.145Z,19.88
2018-12-31T18:16:03.982Z,18.43
2018-12-31T18:18:33.301Z,19.10
2018-12-31T18:21:02.650Z,19.31
2018-12-31T18:23:32.530Z,19.43
2018-12-31T18:26:01.894Z,19.52
2018-12-31T18:28:31.537Z,19.54
2018-12-31T18:31:00.745Z,19.85
2018-12-31T18:33:30.255Z,19.78
2018-12-31T18:36:00.278Z,20.05
2018-12-31T18:38:29.666Z,19.97
2018-12-31T18:40:58.824Z,20.28
2018-12-31T18:43:28.164Z,20.39
2018-12-31T18:45:57.179Z,20.33
2018-12-31T18:48:26.275Z,20.27
2018-12-31T18:50:55.749Z,20.34
2018-12-31T18:53:24.765Z,20.48
2018-12-31T18:55:54.055Z,20.50
2018-12-31T18:58:23.443Z,20.49
2018-12-31T19:00:53.383Z,20.37
2018-12-31T19:03:22.666Z,20.58
2018-12-31T19:05:51.669Z,20.67
2018-12-31T19:08:20.958Z,20.46
2018-12-31T19:10:50.374Z,20.42
2018-12-31T19:13:19.888Z,20.22
2018-12-31T19:15:49.176Z,20.32
2018-12-31T19:18:18.165Z,20.03
2018-12-31T19:20:47.100Z,19.29
2018-12-31T19:23:15.968Z,19.35
2018-12-31T19:25:44.837Z,19.63
2018-12-31T19:28:13.738Z,19.31
2018-12-31T19:30:42.964Z,19.46
2018-12-31T19:33:12.137Z,19.74
2018-12-31T19:35:41.451Z,19.22
2018-12-31T19:38:10.818Z,19.99
2018-12-31T19:40:40.158Z,20.19
2018-12-31T19:43:09.744Z,20.24
2018-12-31T19:45:39.130Z,20.50
2018-12-31T19:48:08.126Z,20.36
2018-12-31T19:50:37.325Z,20.25
2018-12-31T19:53:06.408Z,20.43
2018-12-31T19:55:35.587Z,20.22
2018-12-31T19:58:04.722Z,20.29
2018-12-31T20:00:33.797Z,20.33
2018-12-31T20:03:02.841Z,20.33
2018-12-31T20:05:31.867Z,20.28
2018-12-31T20:08:01.037Z,20.37
2018-12-31T20:10:30.408Z,20.41
2018-12-31T20:13:00.106Z,20.42
2018-12-31T20:15:30.019Z,20.44
2018-12-31T20:17:59.646Z,20.39
2018-12-31T20:20:29.144Z,20.36
2018-12-31T20:22:58.698Z,20.41
2018-12-31T20:25:28.213Z,20.38
2018-12-31T20:27:57.795Z,20.43
2018-12-31T20:30:26.951Z,20.39
2018-12-31T20:32:56.295Z,20.51
2018-12-31T20:35:25.697Z,20.46
2018-12-31T20:37:55.565Z,20.32
2018-12-31T20:40:24.562Z,20.85
2018-12-31T20:42:53.860Z,20.60
2018-12-31T20:45:24.218Z,20.80
2018-12-31T20:48:01.481Z,20.66
2018-12-31T20:50:24.225Z,20.77
2018-12-31T20:52:53.369Z,20.91
2018-12-31T20:55:22.349Z,20.74
2018-12-31T20:57:52.349Z,20.53
2018-12-31T21:00:21.862Z,20.67
2018-12-31T21:02:51.365Z,20.79
2018-12-31T21:05:20.263Z,20.62
2018-12-31T21:07:50.046Z,20.93
2018-12-31T21:10:19.657Z,20.83
2018-12-31T21:12:49.181Z,20.77
2018-12-31T21:15:18.150Z,20.78
2018-12-31T21:17:47.537Z,20.67
2018-12-31T21:20:17.063Z,20.72
2018-12-31T21:22:46.669Z,20.54
2018-12-31T21:25:16.448Z,20.80
2018-12-31T21:27:45.781Z,20.82
2018-12-31T21:30:15.503Z,20.56
2018-12-31T21:32:44.506Z,20.24
2018-12-31T21:35:14.397Z,20.15
2018-12-31T21:37:44.211Z,20.60
2018-12-31T21:40:13.826Z,20.51
2018-12-31T21:42:42.776Z,20.08
2018-12-31T21:45:12.119Z,20.15
2018-12-31T21:47:41.740Z,20.19
2018-12-31T21:50:11.126Z,20.18
2018-12-31T21:52:40.019Z,20.11
2018-12-31T21:55:09.178Z,20.06
2018-12-31T21:57:38.415Z,19.76
2018-12-31T22:00:08.344Z,19.76
2018-12-31T22:02:38.441Z,20.29
2018-12-31T22:05:08.055Z,20.21
2018-12-31T22:07:37.583Z,19.90
2018-12-31T22:10:06.620Z,20.11
2018-12-31T22:12:36.045Z,20.36
2018-12-31T22:15:08.331Z,20.31
2018-12-31T22:17:37.621Z,20.18
2018-12-31T22:20:10.735Z,19.71
2018-12-31T22:22:40.016Z,20.29
2018-12-31T22:25:09.046Z,20.36
2018-12-31T22:27:38.059Z,20.38
2018-12-31T22:30:08.848Z,20.27
2018-12-31T22:32:38.141Z,20.55
2018-12-31T22:35:07.479Z,20.69
2018-12-31T22:37:36.318Z,20.73
2018-12-31T22:40:05.760Z,20.73
2018-12-31T22:42:35.144Z,20.32
2018-12-31T22:45:04.286Z,20.25
2018-12-31T22:47:33.629Z,20.14
2018-12-31T22:50:03.519Z,19.94
2018-12-31T22:52:33.164Z,20.02
2018-12-31T22:55:02.662Z,19.99
2018-12-31T22:57:31.687Z,19.87
2018-12-31T23:00:01.364Z,19.83
2018-12-31T23:02:30.685Z,20.01
2018-12-31T23:04:59.983Z,19.97
2018-12-31T23:07:29.261Z,19.80
2018-12-31T23:09:58.692Z,19.93
2018-12-31T23:12:27.758Z,20.00
2018-12-31T23:14:57.587Z,19.95
2018-12-31T23:17:26.803Z,19.92
2018-12-31T23:19:55.768Z,19.93
2018-12-31T23:22:24.679Z,19.79
2018-12-31T23:24:54.781Z,19.95
2018-12-31T23:27:23.822Z,19.94
2018-12-31T23:29:53.482Z,20.00
2018-12-31T23:32:23.086Z,20.07
2018-12-31T23:34:52.393Z,20.07
2018-12-31T23:37:21.692Z,19.98
2018-12-31T23:39:50.902Z,20.29
2018-12-31T23:42:19.921Z,20.26
2018-12-31T23:44:53.061Z,20.26
2018-12-31T23:47:20.218Z,20.39
2018-12-31T23:49:49.601Z,20.23
2018-12-31T23:52:18.655Z,20.34
2018-12-31T23:54:48.119Z,20.25
2018-12-31T23:57:17.959Z,20.34
2018-12-31T23:59:47.676Z,20.37
